sensor_id;sensor_type;location;lat;lon;timestamp;P1;durP1;ratioP1;P2;durP2;ratioP2
3081;SDS011;1551;51.046;7.010;2023-11-21T00:00:29;6.80;;;5.13;;
3081;SDS011;1551;51.046;7.010;2023-11-21T00:03:18;9.05;;;6.00;;
3081;SDS011;1551;51.046;7.010;2023-11-21T00:06:08;7.60;;;5.47;;
3081;SDS011;1551;51.046;7.010;2023-11-21T00:09:00;7.97;;;5.85;;
3081;SDS011;1551;51.046;7.010;2023-11-21T00:11:49;7.57;;;5.60;;
3081;SDS011;1551;51.046;7.010;2023-11-21T00:14:38;8.35;;;5.50;;
3081;SDS011;1551;51.046;7.010;2023-11-21T00:17:27;8.10;;;5.80;;
3081;SDS011;1551;51.046;7.010;2023-11-21T00:20:16;8.73;;;5.35;;
3081;SDS011;1551;51.046;7.010;2023-11-21T00:23:05;7.28;;;6.18;;
3081;SDS011;1551;51.046;7.010;2023-11-21T00:25:54;7.70;;;5.60;;
3081;SDS011;1551;51.046;7.010;2023-11-21T00:28:43;7.32;;;5.10;;
3081;SDS011;1551;51.046;7.010;2023-11-21T00:31:32;9.77;;;6.10;;
3081;SDS011;1551;51.046;7.010;2023-11-21T00:34:21;8.60;;;6.00;;
3081;SDS011;1551;51.046;7.010;2023-11-21T00:37:09;12.00;;;6.32;;
3081;SDS011;1551;51.046;7.010;2023-11-21T00:39:58;8.13;;;5.85;;
3081;SDS011;1551;51.046;7.010;2023-11-21T00:42:47;6.63;;;4.88;;
3081;SDS011;1551;51.046;7.010;2023-11-21T00:45:36;9.68;;;5.95;;
3081;SDS011;1551;51.046;7.010;2023-11-21T00:48:25;7.32;;;5.30;;
3081;SDS011;1551;51.046;7.010;2023-11-21T00:51:14;7.72;;;5.80;;
3081;SDS011;1551;51.046;7.010;2023-11-21T00:54:03;10.40;;;5.85;;
3081;SDS011;1551;51.046;7.010;2023-11-21T00:56:53;6.05;;;4.95;;
3081;SDS011;1551;51.046;7.010;2023-11-21T00:59:42;10.43;;;6.05;;
3081;SDS011;1551;51.046;7.010;2023-11-21T01:02:30;8.90;;;5.72;;
3081;SDS011;1551;51.046;7.010;2023-11-21T01:05:19;7.78;;;5.40;;
3081;SDS011;1551;51.046;7.010;2023-11-21T01:08:08;11.88;;;6.18;;
3081;SDS011;1551;51.046;7.010;2023-11-21T01:10:57;9.90;;;6.30;;
3081;SDS011;1551;51.046;7.010;2023-11-21T01:13:46;8.18;;;6.20;;
3081;SDS011;1551;51.046;7.010;2023-11-21T01:16:35;7.93;;;5.80;;
3081;SDS011;1551;51.046;7.010;2023-11-21T01:19:26;6.55;;;5.80;;
3081;SDS011;1551;51.046;7.010;2023-11-21T01:22:17;8.32;;;5.88;;
3081;SDS011;1551;51.046;7.010;2023-11-21T01:25:11;8.82;;;5.90;;
3081;SDS011;1551;51.046;7.010;2023-11-21T01:27:59;9.15;;;5.72;;
3081;SDS011;1551;51.046;7.010;2023-11-21T01:30:49;7.30;;;6.07;;
3081;SDS011;1551;51.046;7.010;2023-11-21T01:33:38;9.50;;;6.53;;
3081;SDS011;1551;51.046;7.010;2023-11-21T01:36:30;10.18;;;6.22;;
3081;SDS011;1551;51.046;7.010;2023-11-21T01:39:21;12.45;;;6.22;;
3081;SDS011;1551;51.046;7.010;2023-11-21T01:42:12;14.48;;;7.10;;
3081;SDS011;1551;51.046;7.010;2023-11-21T01:45:02;8.80;;;6.30;;
3081;SDS011;1551;51.046;7.010;2023-11-21T01:47:53;8.50;;;6.57;;
3081;SDS011;1551;51.046;7.010;2023-11-21T01:50:43;11.17;;;6.40;;
3081;SDS011;1551;51.046;7.010;2023-11-21T01:53:32;8.50;;;6.40;;
3081;SDS011;1551;51.046;7.010;2023-11-21T01:56:21;10.48;;;6.72;;
3081;SDS011;1551;51.046;7.010;2023-11-21T01:59:10;8.07;;;6.20;;
3081;SDS011;1551;51.046;7.010;2023-11-21T02:02:06;9.50;;;6.53;;
3081;SDS011;1551;51.046;7.010;2023-11-21T02:04:56;10.20;;;6.68;;
3081;SDS011;1551;51.046;7.010;2023-11-21T02:07:45;10.30;;;7.05;;
3081;SDS011;1551;51.046;7.010;2023-11-21T02:10:38;10.03;;;6.80;;
3081;SDS011;1551;51.046;7.010;2023-11-21T02:13:27;9.70;;;7.15;;
3081;SDS011;1551;51.046;7.010;2023-11-21T02:16:16;8.32;;;6.55;;
3081;SDS011;1551;51.046;7.010;2023-11-21T02:19:07;10.73;;;6.53;;
3081;SDS011;1551;51.046;7.010;2023-11-21T02:22:01;10.60;;;7.20;;
3081;SDS011;1551;51.046;7.010;2023-11-21T02:24:54;8.98;;;6.78;;
3081;SDS011;1551;51.046;7.010;2023-11-21T02:27:44;9.75;;;6.40;;
3081;SDS011;1551;51.046;7.010;2023-11-21T02:30:37;8.27;;;6.28;;
3081;SDS011;1551;51.046;7.010;2023-11-21T02:33:25;9.27;;;5.95;;
3081;SDS011;1551;51.046;7.010;2023-11-21T02:36:15;8.23;;;6.88;;
3081;SDS011;1551;51.046;7.010;2023-11-21T02:39:04;9.82;;;6.70;;
3081;SDS011;1551;51.046;7.010;2023-11-21T02:41:53;11.32;;;7.32;;
3081;SDS011;1551;51.046;7.010;2023-11-21T02:44:42;9.55;;;7.10;;
3081;SDS011;1551;51.046;7.010;2023-11-21T02:47:31;9.50;;;7.55;;
3081;SDS011;1551;51.046;7.010;2023-11-21T02:50:20;9.82;;;7.28;;
3081;SDS011;1551;51.046;7.010;2023-11-21T02:53:11;10.37;;;6.23;;
3081;SDS011;1551;51.046;7.010;2023-11-21T02:56:01;9.15;;;6.90;;
3081;SDS011;1551;51.046;7.010;2023-11-21T03:01:42;8.68;;;7.18;;
3081;SDS011;1551;51.046;7.010;2023-11-21T03:04:31;11.73;;;7.53;;
3081;SDS011;1551;51.046;7.010;2023-11-21T03:07:21;9.88;;;6.90;;
3081;SDS011;1551;51.046;7.010;2023-11-21T03:10:10;10.23;;;7.05;;
3081;SDS011;1551;51.046;7.010;2023-11-21T03:12:59;12.57;;;7.30;;
3081;SDS011;1551;51.046;7.010;2023-11-21T03:15:48;9.13;;;7.13;;
3081;SDS011;1551;51.046;7.010;2023-11-21T03:18:37;11.20;;;7.05;;
3081;SDS011;1551;51.046;7.010;2023-11-21T03:21:27;10.43;;;7.30;;
3081;SDS011;1551;51.046;7.010;2023-11-21T03:24:16;9.68;;;7.53;;
3081;SDS011;1551;51.046;7.010;2023-11-21T03:27:08;11.25;;;7.82;;
3081;SDS011;1551;51.046;7.010;2023-11-21T03:29:57;12.02;;;7.70;;
3081;SDS011;1551;51.046;7.010;2023-11-21T03:32:46;11.27;;;7.63;;
3081;SDS011;1551;51.046;7.010;2023-11-21T03:35:35;10.93;;;8.15;;
3081;SDS011;1551;51.046;7.010;2023-11-21T03:38:24;10.32;;;7.30;;
3081;SDS011;1551;51.046;7.010;2023-11-21T03:41:13;12.00;;;8.15;;
3081;SDS011;1551;51.046;7.010;2023-11-21T03:44:03;11.30;;;8.27;;
3081;SDS011;1551;51.046;7.010;2023-11-21T03:46:52;12.98;;;8.43;;
3081;SDS011;1551;51.046;7.010;2023-11-21T03:49:41;11.60;;;8.20;;
3081;SDS011;1551;51.046;7.010;2023-11-21T03:52:30;10.88;;;7.63;;
3081;SDS011;1551;51.046;7.010;2023-11-21T03:55:19;13.65;;;8.98;;
3081;SDS011;1551;51.046;7.010;2023-11-21T03:58:08;10.98;;;8.20;;
3081;SDS011;1551;51.046;7.010;2023-11-21T04:00:57;15.50;;;8.57;;
3081;SDS011;1551;51.046;7.010;2023-11-21T04:03:46;11.35;;;8.40;;
3081;SDS011;1551;51.046;7.010;2023-11-21T04:06:35;11.25;;;7.95;;
3081;SDS011;1551;51.046;7.010;2023-11-21T04:09:26;10.15;;;8.18;;
3081;SDS011;1551;51.046;7.010;2023-11-21T04:12:15;13.30;;;8.85;;
3081;SDS011;1551;51.046;7.010;2023-11-21T04:15:04;11.30;;;7.38;;
3081;SDS011;1551;51.046;7.010;2023-11-21T04:17:54;10.63;;;8.18;;
3081;SDS011;1551;51.046;7.010;2023-11-21T04:20:42;12.15;;;8.55;;
3081;SDS011;1551;51.046;7.010;2023-11-21T04:23:31;11.70;;;8.00;;
3081;SDS011;1551;51.046;7.010;2023-11-21T04:26:21;12.45;;;7.68;;
3081;SDS011;1551;51.046;7.010;2023-11-21T04:29:10;11.75;;;7.70;;
3081;SDS011;1551;51.046;7.010;2023-11-21T04:31:59;11.50;;;7.70;;
3081;SDS011;1551;51.046;7.010;2023-11-21T04:34:48;11.07;;;7.60;;
3081;SDS011;1551;51.046;7.010;2023-11-21T04:37:37;9.57;;;6.63;;
3081;SDS011;1551;51.046;7.010;2023-11-21T04:40:26;12.10;;;8.33;;
3081;SDS011;1551;51.046;7.010;2023-11-21T04:43:15;11.20;;;7.00;;
3081;SDS011;1551;51.046;7.010;2023-11-21T04:46:04;11.15;;;7.85;;
3081;SDS011;1551;51.046;7.010;2023-11-21T04:48:54;11.93;;;8.38;;
3081;SDS011;1551;51.046;7.010;2023-11-21T04:51:43;10.40;;;7.95;;
3081;SDS011;1551;51.046;7.010;2023-11-21T04:54:32;10.85;;;7.60;;
3081;SDS011;1551;51.046;7.010;2023-11-21T04:57:21;10.95;;;7.40;;
3081;SDS011;1551;51.046;7.010;2023-11-21T05:00:10;9.30;;;7.45;;
3081;SDS011;1551;51.046;7.010;2023-11-21T05:02:59;11.10;;;7.28;;
3081;SDS011;1551;51.046;7.010;2023-11-21T05:05:52;9.40;;;7.50;;
3081;SDS011;1551;51.046;7.010;2023-11-21T05:08:41;10.55;;;7.38;;
3081;SDS011;1551;51.046;7.010;2023-11-21T05:11:31;11.52;;;7.90;;
3081;SDS011;1551;51.046;7.010;2023-11-21T05:14:20;13.00;;;7.90;;
3081;SDS011;1551;51.046;7.010;2023-11-21T05:17:09;11.18;;;7.68;;
3081;SDS011;1551;51.046;7.010;2023-11-21T05:19:58;11.15;;;7.55;;
3081;SDS011;1551;51.046;7.010;2023-11-21T05:22:47;14.00;;;8.10;;
3081;SDS011;1551;51.046;7.010;2023-11-21T05:25:39;10.95;;;7.93;;
3081;SDS011;1551;51.046;7.010;2023-11-21T05:28:30;11.57;;;7.90;;
3081;SDS011;1551;51.046;7.010;2023-11-21T05:31:19;11.35;;;7.97;;
3081;SDS011;1551;51.046;7.010;2023-11-21T05:34:08;13.43;;;7.90;;
3081;SDS011;1551;51.046;7.010;2023-11-21T05:36:56;12.85;;;9.02;;
3081;SDS011;1551;51.046;7.010;2023-11-21T05:39:47;11.83;;;8.10;;
3081;SDS011;1551;51.046;7.010;2023-11-21T05:42:36;14.73;;;9.40;;
3081;SDS011;1551;51.046;7.010;2023-11-21T05:45:27;12.02;;;9.00;;
3081;SDS011;1551;51.046;7.010;2023-11-21T05:48:17;14.05;;;9.10;;
3081;SDS011;1551;51.046;7.010;2023-11-21T05:51:06;15.35;;;8.70;;
3081;SDS011;1551;51.046;7.010;2023-11-21T05:53:57;14.80;;;8.82;;
3081;SDS011;1551;51.046;7.010;2023-11-21T05:56:46;13.18;;;8.65;;
3081;SDS011;1551;51.046;7.010;2023-11-21T05:59:35;16.45;;;9.65;;
3081;SDS011;1551;51.046;7.010;2023-11-21T06:02:24;12.63;;;8.43;;
3081;SDS011;1551;51.046;7.010;2023-11-21T06:05:14;12.40;;;9.55;;
3081;SDS011;1551;51.046;7.010;2023-11-21T06:08:03;15.32;;;8.90;;
3081;SDS011;1551;51.046;7.010;2023-11-21T06:10:53;15.00;;;9.20;;
3081;SDS011;1551;51.046;7.010;2023-11-21T06:13:42;14.52;;;9.15;;
3081;SDS011;1551;51.046;7.010;2023-11-21T06:16:31;13.40;;;9.07;;
3081;SDS011;1551;51.046;7.010;2023-11-21T06:19:20;13.98;;;8.52;;
3081;SDS011;1551;51.046;7.010;2023-11-21T06:22:09;15.15;;;9.75;;
3081;SDS011;1551;51.046;7.010;2023-11-21T06:24:59;12.05;;;9.23;;
3081;SDS011;1551;51.046;7.010;2023-11-21T06:27:48;14.40;;;9.02;;
3081;SDS011;1551;51.046;7.010;2023-11-21T06:30:37;10.90;;;7.82;;
3081;SDS011;1551;51.046;7.010;2023-11-21T06:33:26;12.90;;;9.40;;
3081;SDS011;1551;51.046;7.010;2023-11-21T06:36:16;13.07;;;10.65;;
3081;SDS011;1551;51.046;7.010;2023-11-21T06:39:04;13.68;;;9.63;;
3081;SDS011;1551;51.046;7.010;2023-11-21T06:41:57;15.27;;;10.65;;
3081;SDS011;1551;51.046;7.010;2023-11-21T06:44:48;13.15;;;10.70;;
3081;SDS011;1551;51.046;7.010;2023-11-21T06:47:38;15.65;;;11.15;;
3081;SDS011;1551;51.046;7.010;2023-11-21T06:50:27;14.30;;;10.63;;
3081;SDS011;1551;51.046;7.010;2023-11-21T06:53:16;18.02;;;10.20;;
3081;SDS011;1551;51.046;7.010;2023-11-21T06:56:05;17.20;;;10.90;;
3081;SDS011;1551;51.046;7.010;2023-11-21T06:59:04;15.45;;;11.65;;
3081;SDS011;1551;51.046;7.010;2023-11-21T07:01:54;16.40;;;11.70;;
3081;SDS011;1551;51.046;7.010;2023-11-21T07:04:44;19.77;;;12.50;;
3081;SDS011;1551;51.046;7.010;2023-11-21T07:07:34;22.70;;;12.95;;
3081;SDS011;1551;51.046;7.010;2023-11-21T07:10:25;18.65;;;11.85;;
3081;SDS011;1551;51.046;7.010;2023-11-21T07:13:15;17.00;;;12.98;;
3081;SDS011;1551;51.046;7.010;2023-11-21T07:16:04;18.67;;;12.55;;
3081;SDS011;1551;51.046;7.010;2023-11-21T07:18:53;21.30;;;13.93;;
3081;SDS011;1551;51.046;7.010;2023-11-21T07:21:43;24.70;;;14.30;;
3081;SDS011;1551;51.046;7.010;2023-11-21T07:24:33;23.30;;;14.85;;
3081;SDS011;1551;51.046;7.010;2023-11-21T07:27:22;21.58;;;14.52;;
3081;SDS011;1551;51.046;7.010;2023-11-21T07:30:11;21.95;;;14.32;;
3081;SDS011;1551;51.046;7.010;2023-11-21T07:33:01;26.13;;;15.05;;
3081;SDS011;1551;51.046;7.010;2023-11-21T07:35:50;21.35;;;15.18;;
3081;SDS011;1551;51.046;7.010;2023-11-21T07:38:41;25.87;;;15.87;;
3081;SDS011;1551;51.046;7.010;2023-11-21T07:41:31;24.80;;;17.38;;
3081;SDS011;1551;51.046;7.010;2023-11-21T07:44:20;27.17;;;16.92;;
3081;SDS011;1551;51.046;7.010;2023-11-21T07:47:10;25.67;;;17.58;;
3081;SDS011;1551;51.046;7.010;2023-11-21T07:49:59;25.33;;;16.55;;
3081;SDS011;1551;51.046;7.010;2023-11-21T07:52:48;30.30;;;17.27;;
3081;SDS011;1551;51.046;7.010;2023-11-21T07:55:38;24.83;;;17.38;;
3081;SDS011;1551;51.046;7.010;2023-11-21T07:58:27;28.17;;;16.42;;
3081;SDS011;1551;51.046;7.010;2023-11-21T08:01:16;25.23;;;16.48;;
3081;SDS011;1551;51.046;7.010;2023-11-21T08:04:04;28.40;;;17.03;;
3081;SDS011;1551;51.046;7.010;2023-11-21T08:06:55;22.45;;;14.27;;
3081;SDS011;1551;51.046;7.010;2023-11-21T08:09:44;20.65;;;14.90;;
3081;SDS011;1551;51.046;7.010;2023-11-21T08:12:35;24.40;;;15.55;;
3081;SDS011;1551;51.046;7.010;2023-11-21T08:15:24;22.80;;;15.25;;
3081;SDS011;1551;51.046;7.010;2023-11-21T08:18:13;25.63;;;16.02;;
3081;SDS011;1551;51.046;7.010;2023-11-21T08:21:03;24.60;;;16.80;;
3081;SDS011;1551;51.046;7.010;2023-11-21T08:23:53;28.45;;;16.88;;
3081;SDS011;1551;51.046;7.010;2023-11-21T08:26:43;26.20;;;17.15;;
3081;SDS011;1551;51.046;7.010;2023-11-21T08:29:32;32.97;;;18.80;;
3081;SDS011;1551;51.046;7.010;2023-11-21T08:32:21;29.60;;;17.67;;
3081;SDS011;1551;51.046;7.010;2023-11-21T08:35:11;32.30;;;17.60;;
3081;SDS011;1551;51.046;7.010;2023-11-21T08:38:00;31.58;;;18.08;;
3081;SDS011;1551;51.046;7.010;2023-11-21T08:40:49;28.83;;;17.90;;
3081;SDS011;1551;51.046;7.010;2023-11-21T08:43:38;26.73;;;16.80;;
3081;SDS011;1551;51.046;7.010;2023-11-21T08:46:30;25.92;;;16.58;;
3081;SDS011;1551;51.046;7.010;2023-11-21T08:49:19;28.95;;;18.05;;
3081;SDS011;1551;51.046;7.010;2023-11-21T08:52:08;31.27;;;18.17;;
3081;SDS011;1551;51.046;7.010;2023-11-21T08:54:57;27.55;;;16.40;;
3081;SDS011;1551;51.046;7.010;2023-11-21T08:57:48;27.15;;;16.35;;
3081;SDS011;1551;51.046;7.010;2023-11-21T09:00:37;27.67;;;16.10;;
3081;SDS011;1551;51.046;7.010;2023-11-21T09:03:29;25.03;;;16.60;;
3081;SDS011;1551;51.046;7.010;2023-11-21T09:06:18;28.20;;;16.83;;
3081;SDS011;1551;51.046;7.010;2023-11-21T09:09:07;27.60;;;18.03;;
3081;SDS011;1551;51.046;7.010;2023-11-21T09:11:59;28.42;;;16.30;;
3081;SDS011;1551;51.046;7.010;2023-11-21T09:14:50;27.33;;;16.92;;
3081;SDS011;1551;51.046;7.010;2023-11-21T09:17:40;24.67;;;16.30;;
3081;SDS011;1551;51.046;7.010;2023-11-21T09:20:29;28.10;;;17.17;;
3081;SDS011;1551;51.046;7.010;2023-11-21T09:23:18;28.67;;;17.25;;
3081;SDS011;1551;51.046;7.010;2023-11-21T09:26:07;29.33;;;16.38;;
3081;SDS011;1551;51.046;7.010;2023-11-21T09:28:57;29.52;;;17.83;;
3081;SDS011;1551;51.046;7.010;2023-11-21T09:31:46;33.75;;;18.15;;
3081;SDS011;1551;51.046;7.010;2023-11-21T09:34:35;33.83;;;19.23;;
3081;SDS011;1551;51.046;7.010;2023-11-21T09:37:27;33.60;;;19.75;;
3081;SDS011;1551;51.046;7.010;2023-11-21T09:40:15;38.60;;;19.20;;
3081;SDS011;1551;51.046;7.010;2023-11-21T09:43:17;29.90;;;17.95;;
3081;SDS011;1551;51.046;7.010;2023-11-21T09:46:07;30.10;;;17.85;;
3081;SDS011;1551;51.046;7.010;2023-11-21T09:48:59;33.63;;;18.95;;
3081;SDS011;1551;51.046;7.010;2023-11-21T09:51:50;37.07;;;19.73;;
3081;SDS011;1551;51.046;7.010;2023-11-21T09:54:43;25.70;;;17.47;;
3081;SDS011;1551;51.046;7.010;2023-11-21T09:57:33;28.55;;;18.40;;
3081;SDS011;1551;51.046;7.010;2023-11-21T10:00:23;29.67;;;18.17;;
3081;SDS011;1551;51.046;7.010;2023-11-21T10:03:13;29.27;;;17.45;;
3081;SDS011;1551;51.046;7.010;2023-11-21T10:06:03;29.27;;;17.65;;
3081;SDS011;1551;51.046;7.010;2023-11-21T10:08:55;28.42;;;17.50;;
3081;SDS011;1551;51.046;7.010;2023-11-21T10:11:47;29.13;;;16.88;;
3081;SDS011;1551;51.046;7.010;2023-11-21T10:14:40;29.73;;;17.90;;
3081;SDS011;1551;51.046;7.010;2023-11-21T10:17:30;28.63;;;18.58;;
3081;SDS011;1551;51.046;7.010;2023-11-21T10:20:25;28.87;;;17.93;;
3081;SDS011;1551;51.046;7.010;2023-11-21T10:23:14;28.38;;;18.27;;
3081;SDS011;1551;51.046;7.010;2023-11-21T10:26:04;28.30;;;17.30;;
3081;SDS011;1551;51.046;7.010;2023-11-21T10:28:57;27.58;;;16.83;;
3081;SDS011;1551;51.046;7.010;2023-11-21T10:31:51;25.50;;;16.73;;
3081;SDS011;1551;51.046;7.010;2023-11-21T10:34:40;30.50;;;17.73;;
3081;SDS011;1551;51.046;7.010;2023-11-21T10:37:30;31.88;;;19.30;;
3081;SDS011;1551;51.046;7.010;2023-11-21T10:40:18;30.90;;;18.08;;
3081;SDS011;1551;51.046;7.010;2023-11-21T10:43:09;33.37;;;19.53;;
3081;SDS011;1551;51.046;7.010;2023-11-21T10:45:58;32.08;;;20.60;;
3081;SDS011;1551;51.046;7.010;2023-11-21T10:48:54;32.60;;;20.03;;
3081;SDS011;1551;51.046;7.010;2023-11-21T10:51:44;32.28;;;19.23;;
3081;SDS011;1551;51.046;7.010;2023-11-21T10:54:33;34.38;;;19.08;;
3081;SDS011;1551;51.046;7.010;2023-11-21T10:57:24;33.95;;;20.10;;
3081;SDS011;1551;51.046;7.010;2023-11-21T11:00:14;31.27;;;19.17;;
3081;SDS011;1551;51.046;7.010;2023-11-21T11:03:05;33.55;;;19.70;;
3081;SDS011;1551;51.046;7.010;2023-11-21T11:06:02;31.50;;;18.90;;
3081;SDS011;1551;51.046;7.010;2023-11-21T11:08:53;33.50;;;19.23;;
3081;SDS011;1551;51.046;7.010;2023-11-21T11:11:43;31.90;;;19.93;;
3081;SDS011;1551;51.046;7.010;2023-11-21T11:14:33;32.55;;;20.05;;
3081;SDS011;1551;51.046;7.010;2023-11-21T11:17:22;34.60;;;19.40;;
3081;SDS011;1551;51.046;7.010;2023-11-21T11:20:12;29.50;;;19.55;;
3081;SDS011;1551;51.046;7.010;2023-11-21T11:26:44;32.35;;;20.02;;
3081;SDS011;1551;51.046;7.010;2023-11-21T11:29:46;32.47;;;19.60;;
3081;SDS011;1551;51.046;7.010;2023-11-21T11:36:02;33.13;;;18.45;;
3081;SDS011;1551;51.046;7.010;2023-11-21T11:38:52;31.38;;;17.42;;
3081;SDS011;1551;51.046;7.010;2023-11-21T11:41:42;35.33;;;19.40;;
3081;SDS011;1551;51.046;7.010;2023-11-21T11:47:38;37.25;;;20.63;;
3081;SDS011;1551;51.046;7.010;2023-11-21T11:50:28;37.05;;;19.35;;
3081;SDS011;1551;51.046;7.010;2023-11-21T11:53:18;36.50;;;19.60;;
3081;SDS011;1551;51.046;7.010;2023-11-21T11:59:19;34.05;;;19.90;;
3081;SDS011;1551;51.046;7.010;2023-11-21T12:02:08;36.90;;;20.20;;
3081;SDS011;1551;51.046;7.010;2023-11-21T12:04:59;32.37;;;18.50;;
3081;SDS011;1551;51.046;7.010;2023-11-21T12:07:57;32.38;;;19.75;;
3081;SDS011;1551;51.046;7.010;2023-11-21T12:10:49;35.20;;;19.90;;
3081;SDS011;1551;51.046;7.010;2023-11-21T12:13:43;28.98;;;18.88;;
3081;SDS011;1551;51.046;7.010;2023-11-21T12:16:32;32.72;;;19.77;;
3081;SDS011;1551;51.046;7.010;2023-11-21T12:19:21;37.00;;;19.60;;
3081;SDS011;1551;51.046;7.010;2023-11-21T12:22:10;33.37;;;19.20;;
3081;SDS011;1551;51.046;7.010;2023-11-21T12:25:01;38.15;;;20.90;;
3081;SDS011;1551;51.046;7.010;2023-11-21T12:27:51;28.65;;;18.27;;
3081;SDS011;1551;51.046;7.010;2023-11-21T12:30:41;30.75;;;19.58;;
3081;SDS011;1551;51.046;7.010;2023-11-21T12:33:30;39.25;;;20.30;;
3081;SDS011;1551;51.046;7.010;2023-11-21T12:36:19;40.85;;;20.23;;
3081;SDS011;1551;51.046;7.010;2023-11-21T12:39:07;34.10;;;19.10;;
3081;SDS011;1551;51.046;7.010;2023-11-21T12:41:58;32.30;;;18.25;;
3081;SDS011;1551;51.046;7.010;2023-11-21T12:44:47;36.53;;;18.88;;
3081;SDS011;1551;51.046;7.010;2023-11-21T12:47:36;32.38;;;19.95;;
3081;SDS011;1551;51.046;7.010;2023-11-21T12:50:26;33.97;;;19.70;;
3081;SDS011;1551;51.046;7.010;2023-11-21T12:53:17;31.27;;;17.77;;
3081;SDS011;1551;51.046;7.010;2023-11-21T12:56:10;30.40;;;18.85;;
3081;SDS011;1551;51.046;7.010;2023-11-21T12:59:00;28.80;;;17.73;;
3081;SDS011;1551;51.046;7.010;2023-11-21T13:01:53;27.45;;;17.23;;
3081;SDS011;1551;51.046;7.010;2023-11-21T13:04:51;31.23;;;18.40;;
3081;SDS011;1551;51.046;7.010;2023-11-21T13:07:42;35.20;;;20.48;;
3081;SDS011;1551;51.046;7.010;2023-11-21T13:10:35;33.75;;;19.20;;
3081;SDS011;1551;51.046;7.010;2023-11-21T13:13:25;30.67;;;15.75;;
3081;SDS011;1551;51.046;7.010;2023-11-21T13:16:17;25.23;;;15.23;;
3081;SDS011;1551;51.046;7.010;2023-11-21T13:19:06;24.65;;;16.25;;
3081;SDS011;1551;51.046;7.010;2023-11-21T13:21:57;30.85;;;17.75;;
3081;SDS011;1551;51.046;7.010;2023-11-21T13:24:47;32.10;;;17.70;;
3081;SDS011;1551;51.046;7.010;2023-11-21T13:27:36;29.65;;;17.83;;
3081;SDS011;1551;51.046;7.010;2023-11-21T13:30:26;31.87;;;16.40;;
3081;SDS011;1551;51.046;7.010;2023-11-21T13:33:16;31.38;;;16.85;;
3081;SDS011;1551;51.046;7.010;2023-11-21T13:36:10;28.75;;;16.10;;
3081;SDS011;1551;51.046;7.010;2023-11-21T13:38:59;30.10;;;16.27;;
3081;SDS011;1551;51.046;7.010;2023-11-21T13:41:53;31.67;;;16.23;;
3081;SDS011;1551;51.046;7.010;2023-11-21T13:44:43;28.58;;;16.15;;
3081;SDS011;1551;51.046;7.010;2023-11-21T13:47:35;28.25;;;17.80;;
3081;SDS011;1551;51.046;7.010;2023-11-21T13:50:26;32.17;;;17.50;;
3081;SDS011;1551;51.046;7.010;2023-11-21T13:53:21;28.07;;;17.40;;
3081;SDS011;1551;51.046;7.010;2023-11-21T13:56:11;31.77;;;17.25;;
3081;SDS011;1551;51.046;7.010;2023-11-21T13:59:01;33.63;;;18.30;;
3081;SDS011;1551;51.046;7.010;2023-11-21T14:01:59;31.98;;;17.30;;
3081;SDS011;1551;51.046;7.010;2023-11-21T14:04:48;29.27;;;16.77;;
3081;SDS011;1551;51.046;7.010;2023-11-21T14:07:40;31.33;;;17.30;;
3081;SDS011;1551;51.046;7.010;2023-11-21T14:10:36;28.40;;;15.60;;
3081;SDS011;1551;51.046;7.010;2023-11-21T14:13:39;29.30;;;16.77;;
3081;SDS011;1551;51.046;7.010;2023-11-21T14:16:34;26.83;;;16.90;;
3081;SDS011;1551;51.046;7.010;2023-11-21T14:19:23;33.25;;;17.27;;
3081;SDS011;1551;51.046;7.010;2023-11-21T14:22:16;27.25;;;15.80;;
3081;SDS011;1551;51.046;7.010;2023-11-21T14:25:05;29.60;;;16.90;;
3081;SDS011;1551;51.046;7.010;2023-11-21T14:27:55;29.70;;;16.92;;
3081;SDS011;1551;51.046;7.010;2023-11-21T14:30:48;28.77;;;17.80;;
3081;SDS011;1551;51.046;7.010;2023-11-21T14:33:37;33.38;;;19.38;;
3081;SDS011;1551;51.046;7.010;2023-11-21T14:36:25;27.25;;;16.48;;
3081;SDS011;1551;51.046;7.010;2023-11-21T14:39:14;30.25;;;17.83;;
3081;SDS011;1551;51.046;7.010;2023-11-21T14:42:15;30.13;;;17.50;;
3081;SDS011;1551;51.046;7.010;2023-11-21T14:45:05;34.67;;;19.03;;
3081;SDS011;1551;51.046;7.010;2023-11-21T14:47:55;33.30;;;18.67;;
3081;SDS011;1551;51.046;7.010;2023-11-21T14:50:54;30.98;;;17.38;;
3081;SDS011;1551;51.046;7.010;2023-11-21T14:54:02;34.03;;;18.95;;
3081;SDS011;1551;51.046;7.010;2023-11-21T14:56:55;34.08;;;19.70;;
3081;SDS011;1551;51.046;7.010;2023-11-21T14:59:45;40.33;;;19.40;;
3081;SDS011;1551;51.046;7.010;2023-11-21T15:02:46;40.88;;;19.30;;
3081;SDS011;1551;51.046;7.010;2023-11-21T15:05:38;37.72;;;21.38;;
3081;SDS011;1551;51.046;7.010;2023-11-21T15:08:28;32.25;;;18.98;;
3081;SDS011;1551;51.046;7.010;2023-11-21T15:11:20;35.03;;;18.67;;
3081;SDS011;1551;51.046;7.010;2023-11-21T15:14:13;31.33;;;19.30;;
3081;SDS011;1551;51.046;7.010;2023-11-21T15:17:09;40.88;;;20.15;;
3081;SDS011;1551;51.046;7.010;2023-11-21T15:19:58;35.60;;;20.35;;
3081;SDS011;1551;51.046;7.010;2023-11-21T15:22:48;36.70;;;18.70;;
3081;SDS011;1551;51.046;7.010;2023-11-21T15:25:37;39.43;;;19.83;;
3081;SDS011;1551;51.046;7.010;2023-11-21T15:28:26;35.80;;;18.60;;
3081;SDS011;1551;51.046;7.010;2023-11-21T15:31:17;31.10;;;17.13;;
3081;SDS011;1551;51.046;7.010;2023-11-21T15:34:11;27.27;;;16.93;;
3081;SDS011;1551;51.046;7.010;2023-11-21T15:37:00;23.58;;;14.32;;
3081;SDS011;1551;51.046;7.010;2023-11-21T15:39:51;21.92;;;12.93;;
3081;SDS011;1551;51.046;7.010;2023-11-21T15:42:40;20.83;;;12.43;;
3081;SDS011;1551;51.046;7.010;2023-11-21T15:45:29;18.70;;;13.95;;
3081;SDS011;1551;51.046;7.010;2023-11-21T15:48:18;17.63;;;11.23;;
3081;SDS011;1551;51.046;7.010;2023-11-21T15:51:07;19.00;;;10.98;;
3081;SDS011;1551;51.046;7.010;2023-11-21T15:54:01;15.40;;;10.60;;
3081;SDS011;1551;51.046;7.010;2023-11-21T15:56:50;17.40;;;11.07;;
3081;SDS011;1551;51.046;7.010;2023-11-21T15:59:41;16.30;;;11.57;;
3081;SDS011;1551;51.046;7.010;2023-11-21T16:02:31;16.95;;;11.45;;
3081;SDS011;1551;51.046;7.010;2023-11-21T16:05:20;17.63;;;11.80;;
3081;SDS011;1551;51.046;7.010;2023-11-21T16:08:09;16.23;;;11.50;;
3081;SDS011;1551;51.046;7.010;2023-11-21T16:10:58;17.20;;;11.35;;
3081;SDS011;1551;51.046;7.010;2023-11-21T16:13:49;15.52;;;10.30;;
3081;SDS011;1551;51.046;7.010;2023-11-21T16:16:38;12.80;;;9.47;;
3081;SDS011;1551;51.046;7.010;2023-11-21T16:19:27;15.38;;;11.38;;
3081;SDS011;1551;51.046;7.010;2023-11-21T16:22:17;14.30;;;10.02;;
3081;SDS011;1551;51.046;7.010;2023-11-21T16:25:06;13.82;;;10.57;;
3081;SDS011;1551;51.046;7.010;2023-11-21T16:27:59;14.90;;;10.30;;
3081;SDS011;1551;51.046;7.010;2023-11-21T16:30:52;14.87;;;9.57;;
3081;SDS011;1551;51.046;7.010;2023-11-21T16:33:41;14.27;;;9.75;;
3081;SDS011;1551;51.046;7.010;2023-11-21T16:36:30;16.40;;;10.20;;
3081;SDS011;1551;51.046;7.010;2023-11-21T16:39:19;14.77;;;10.45;;
3081;SDS011;1551;51.046;7.010;2023-11-21T16:42:10;15.87;;;10.63;;
3081;SDS011;1551;51.046;7.010;2023-11-21T16:44:59;20.60;;;13.70;;
3081;SDS011;1551;51.046;7.010;2023-11-21T16:47:48;15.18;;;10.82;;
3081;SDS011;1551;51.046;7.010;2023-11-21T16:50:45;13.90;;;10.70;;
3081;SDS011;1551;51.046;7.010;2023-11-21T16:53:34;11.88;;;9.20;;
3081;SDS011;1551;51.046;7.010;2023-11-21T16:56:23;12.52;;;8.40;;
3081;SDS011;1551;51.046;7.010;2023-11-21T16:59:13;11.75;;;8.43;;
3081;SDS011;1551;51.046;7.010;2023-11-21T17:02:01;14.18;;;8.75;;
3081;SDS011;1551;51.046;7.010;2023-11-21T17:04:50;12.35;;;9.60;;
3081;SDS011;1551;51.046;7.010;2023-11-21T17:07:39;12.77;;;9.50;;
3081;SDS011;1551;51.046;7.010;2023-11-21T17:10:28;11.25;;;7.97;;
3081;SDS011;1551;51.046;7.010;2023-11-21T17:13:17;14.52;;;8.68;;
3081;SDS011;1551;51.046;7.010;2023-11-21T17:16:06;11.13;;;8.67;;
3081;SDS011;1551;51.046;7.010;2023-11-21T17:18:55;12.30;;;8.80;;
3081;SDS011;1551;51.046;7.010;2023-11-21T17:21:44;12.45;;;8.77;;
3081;SDS011;1551;51.046;7.010;2023-11-21T17:24:34;12.68;;;10.07;;
3081;SDS011;1551;51.046;7.010;2023-11-21T17:27:25;11.70;;;8.68;;
3081;SDS011;1551;51.046;7.010;2023-11-21T17:30:15;11.57;;;8.00;;